createdAt,value
2022-12-20T00:00:51.052Z,100.00
2022-12-20T00:03:18.032Z,100.00
2022-12-20T00:05:46.197Z,100.00
2022-12-20T00:08:13.283Z,100.00
2022-12-20T00:10:41.881Z,100.00
2022-12-20T00:13:09.907Z,100.00
2022-12-20T00:15:36.891Z,100.00
2022-12-20T00:18:03.966Z,100.00
2022-12-20T00:20:31.075Z,100.00
2022-12-20T00:22:59.154Z,100.00
2022-12-20T00:25:25.798Z,100.00
2022-12-20T00:27:52.601Z,100.00
2022-12-20T00:30:20.038Z,100.00
2022-12-20T00:32:46.741Z,100.00
2022-12-20T00:35:13.253Z,100.00
2022-12-20T00:37:39.857Z,100.00
2022-12-20T00:40:09.503Z,100.00
2022-12-20T00:42:36.204Z,100.00
2022-12-20T00:45:03.681Z,100.00
2022-12-20T00:47:30.203Z,100.00
2022-12-20T00:49:56.861Z,100.00
2022-12-20T00:52:23.410Z,100.00
2022-12-20T00:54:49.953Z,100.00
2022-12-20T00:57:17.839Z,100.00
2022-12-20T00:59:44.354Z,100.00
2022-12-20T01:02:11.055Z,100.00
2022-12-20T01:04:37.753Z,100.00
2022-12-20T01:07:04.489Z,100.00
2022-12-20T01:09:31.547Z,100.00
2022-12-20T01:11:58.140Z,100.00
2022-12-20T01:14:26.079Z,100.00
2022-12-20T01:16:52.693Z,100.00
2022-12-20T01:19:19.562Z,100.00
2022-12-20T01:21:46.864Z,100.00
2022-12-20T01:24:14.707Z,100.00
2022-12-20T01:26:41.641Z,100.00
2022-12-20T01:29:08.209Z,100.00
2022-12-20T01:31:36.625Z,100.00
2022-12-20T01:34:03.398Z,100.00
2022-12-20T01:36:31.652Z,100.00
2022-12-20T01:38:59.248Z,100.00
2022-12-20T01:41:27.350Z,100.00
2022-12-20T01:43:56.416Z,100.00
2022-12-20T01:46:24.398Z,100.00
2022-12-20T01:48:56.593Z,100.00
2022-12-20T01:51:24.165Z,100.00
2022-12-20T01:53:55.245Z,100.00
2022-12-20T01:56:22.067Z,100.00
2022-12-20T01:58:51.582Z,100.00
2022-12-20T02:01:18.338Z,100.00
2022-12-20T02:03:45.368Z,100.00
2022-12-20T02:06:18.607Z,100.00
2022-12-20T02:08:48.213Z,100.00
2022-12-20T02:11:32.340Z,100.00
2022-12-20T02:14:08.280Z,100.00
2022-12-20T02:16:45.537Z,100.00
2022-12-20T02:19:31.250Z,100.00
2022-12-20T02:22:07.137Z,100.00
2022-12-20T02:25:03.480Z,100.00
2022-12-20T02:27:48.852Z,100.00
2022-12-20T02:30:18.796Z,100.00
2022-12-20T02:32:52.746Z,100.00
2022-12-20T02:35:23.125Z,100.00
2022-12-20T02:37:51.515Z,100.00
2022-12-20T02:40:22.449Z,100.00
2022-12-20T02:42:52.743Z,100.00
2022-12-20T02:45:23.743Z,100.00
2022-12-20T02:47:54.548Z,100.00
2022-12-20T02:50:25.183Z,100.00
2022-12-20T02:52:53.017Z,100.00
2022-12-20T02:55:23.965Z,100.00
2022-12-20T02:58:00.104Z,100.00
2022-12-20T03:00:34.189Z,100.00
2022-12-20T03:03:01.767Z,100.00
2022-12-20T03:05:28.874Z,100.00
2022-12-20T03:07:55.676Z,100.00
2022-12-20T03:10:22.605Z,100.00
2022-12-20T03:12:49.254Z,100.00
2022-12-20T03:15:15.849Z,100.00
2022-12-20T03:17:43.780Z,100.00
2022-12-20T03:20:10.834Z,100.00
2022-12-20T03:22:38.006Z,100.00
2022-12-20T03:25:05.348Z,100.00
2022-12-20T03:27:32.077Z,100.00
2022-12-20T03:29:58.589Z,100.00
2022-12-20T03:32:25.073Z,100.00
2022-12-20T03:34:52.959Z,100.00
2022-12-20T03:37:19.508Z,100.00
2022-12-20T03:39:46.188Z,100.00
2022-12-20T03:42:12.734Z,100.00
2022-12-20T03:44:39.375Z,100.00
2022-12-20T03:47:06.106Z,100.00
2022-12-20T03:49:32.667Z,100.00
2022-12-20T03:52:00.630Z,100.00
2022-12-20T03:54:27.388Z,100.00
2022-12-20T03:56:54.049Z,100.00
2022-12-20T03:59:20.769Z,100.00
2022-12-20T04:01:47.582Z,100.00
2022-12-20T04:04:15.229Z,100.00
2022-12-20T04:06:41.960Z,100.00
2022-12-20T04:09:09.913Z,100.00
2022-12-20T04:11:36.409Z,100.00
2022-12-20T04:14:03.112Z,100.00
2022-12-20T04:16:30.464Z,100.00
2022-12-20T04:18:57.330Z,100.00
2022-12-20T04:21:25.474Z,100.00
2022-12-20T04:23:52.026Z,100.00
2022-12-20T04:26:21.081Z,100.00
2022-12-20T04:28:47.977Z,100.00
2022-12-20T04:31:18.600Z,100.00
2022-12-20T04:33:49.963Z,100.00
2022-12-20T04:36:16.537Z,100.00
2022-12-20T04:38:43.257Z,100.00
2022-12-20T04:41:09.873Z,100.00
2022-12-20T04:43:37.918Z,100.00
2022-12-20T04:46:04.599Z,100.00
2022-12-20T04:48:56.371Z,100.00
2022-12-20T04:51:18.429Z,100.00
2022-12-20T04:53:45.135Z,100.00
2022-12-20T04:56:11.644Z,100.00
2022-12-20T04:58:39.515Z,100.00
2022-12-20T05:01:06.092Z,100.00
2022-12-20T05:03:32.720Z,100.00
2022-12-20T05:05:59.248Z,100.00
2022-12-20T05:08:26.110Z,100.00
2022-12-20T05:10:52.602Z,100.00
2022-12-20T05:13:19.262Z,100.00
2022-12-20T05:15:51.327Z,100.00
2022-12-20T05:18:17.898Z,100.00
2022-12-20T05:20:44.826Z,100.00
2022-12-20T05:23:11.782Z,100.00
2022-12-20T05:25:38.938Z,100.00
2022-12-20T05:28:05.547Z,100.00
2022-12-20T05:30:32.108Z,100.00
2022-12-20T05:33:00.041Z,100.00
2022-12-20T05:35:26.593Z,100.00
2022-12-20T05:37:53.434Z,100.00
2022-12-20T05:40:19.982Z,100.00
2022-12-20T05:42:46.730Z,100.00
2022-12-20T05:45:13.387Z,100.00
2022-12-20T05:47:39.932Z,100.00
2022-12-20T05:50:12.291Z,100.00
2022-12-20T05:52:43.334Z,100.00
2022-12-20T05:55:09.923Z,100.00
2022-12-20T05:57:36.671Z,100.00
2022-12-20T06:00:04.179Z,99.08
2022-12-20T06:02:30.894Z,99.59
2022-12-20T06:04:57.830Z,99.12
2022-12-20T06:07:26.606Z,99.43
2022-12-20T06:09:53.100Z,98.19
2022-12-20T06:12:19.675Z,98.35
2022-12-20T06:14:46.221Z,97.05
2022-12-20T06:17:13.131Z,97.03
2022-12-20T06:19:39.934Z,96.62
2022-12-20T06:22:06.472Z,96.93
2022-12-20T06:24:34.449Z,96.18
2022-12-20T06:27:01.266Z,96.34
2022-12-20T06:29:27.824Z,95.53
2022-12-20T06:31:54.512Z,96.06
2022-12-20T06:34:21.112Z,96.51
2022-12-20T06:36:47.797Z,95.22
2022-12-20T06:39:14.559Z,94.68
2022-12-20T06:41:42.487Z,94.75
2022-12-20T06:44:09.109Z,94.88
2022-12-20T06:46:35.745Z,94.99
2022-12-20T06:49:02.369Z,95.33
2022-12-20T06:51:28.909Z,95.84
2022-12-20T06:53:55.451Z,95.37
2022-12-20T06:56:22.160Z,95.34
2022-12-20T06:58:50.244Z,95.72
2022-12-20T07:01:16.774Z,96.08
2022-12-20T07:03:43.564Z,96.30
2022-12-20T07:06:10.112Z,96.50
2022-12-20T07:08:36.710Z,96.74
2022-12-20T07:11:04.934Z,97.42
2022-12-20T07:13:31.478Z,97.31
2022-12-20T07:16:00.190Z,95.95
2022-12-20T07:18:26.811Z,95.77
2022-12-20T07:20:53.510Z,94.89
2022-12-20T07:23:20.073Z,94.79
2022-12-20T07:25:53.416Z,94.64
2022-12-20T07:28:20.085Z,94.44
2022-12-20T07:30:46.772Z,94.03
2022-12-20T07:33:14.645Z,95.17
2022-12-20T07:35:41.160Z,95.67
2022-12-20T07:38:07.684Z,95.85
2022-12-20T07:40:34.184Z,94.65
2022-12-20T07:43:00.943Z,95.21
2022-12-20T07:45:27.737Z,95.91
2022-12-20T07:47:54.343Z,95.99
2022-12-20T07:50:22.461Z,95.96
2022-12-20T07:52:50.745Z,96.12
2022-12-20T07:55:17.939Z,96.29
2022-12-20T07:57:48.906Z,96.61
2022-12-20T08:00:16.309Z,96.93
2022-12-20T08:02:48.046Z,95.92
2022-12-20T08:05:14.896Z,95.19
2022-12-20T08:07:44.430Z,92.08
2022-12-20T08:10:14.252Z,91.13
2022-12-20T08:12:43.474Z,91.12
2022-12-20T08:15:11.019Z,90.51
2022-12-20T08:17:37.580Z,90.46
2022-12-20T08:20:05.148Z,90.44
2022-12-20T08:22:31.790Z,90.35
2022-12-20T08:24:59.720Z,90.11
2022-12-20T08:27:26.331Z,89.04
2022-12-20T08:29:52.912Z,88.81
2022-12-20T08:32:19.639Z,89.39
2022-12-20T08:34:46.333Z,89.59
2022-12-20T08:37:15.191Z,89.83
2022-12-20T08:39:42.003Z,90.03
2022-12-20T08:42:09.955Z,90.27
2022-12-20T08:44:36.595Z,89.85
2022-12-20T08:47:03.351Z,89.03
2022-12-20T08:49:29.900Z,88.33
2022-12-20T08:51:56.480Z,88.49
2022-12-20T08:54:23.062Z,88.82
2022-12-20T08:56:49.614Z,88.88
2022-12-20T08:59:17.954Z,88.90
2022-12-20T09:01:44.583Z,89.63
2022-12-20T09:04:11.809Z,89.10
2022-12-20T09:06:38.901Z,88.70
2022-12-20T09:09:05.549Z,88.62
2022-12-20T09:11:32.089Z,87.92
2022-12-20T09:13:59.785Z,88.82
2022-12-20T09:16:29.931Z,87.42
2022-12-20T09:19:04.599Z,87.78
2022-12-20T09:21:32.711Z,87.28
2022-12-20T09:23:59.266Z,87.24
2022-12-20T09:26:26.259Z,87.20
2022-12-20T09:28:52.811Z,87.61
2022-12-20T09:31:22.215Z,87.73
2022-12-20T09:33:52.917Z,87.31
2022-12-20T09:36:21.636Z,87.26
2022-12-20T09:38:48.596Z,87.60
2022-12-20T09:41:26.252Z,86.75
2022-12-20T09:43:53.330Z,86.05
2022-12-20T09:46:19.987Z,86.20
2022-12-20T09:48:47.531Z,86.11
2022-12-20T09:51:29.981Z,85.61
2022-12-20T09:54:07.090Z,85.84
2022-12-20T09:56:37.284Z,85.08
2022-12-20T09:59:06.141Z,84.95
2022-12-20T10:01:39.554Z,84.70
2022-12-20T10:04:15.584Z,84.09
2022-12-20T10:06:54.220Z,84.37
2022-12-20T10:09:33.948Z,83.69
2022-12-20T10:12:08.954Z,84.04
2022-12-20T10:14:49.774Z,84.36
2022-12-20T10:17:32.218Z,84.29
2022-12-20T10:20:15.733Z,85.04
2022-12-20T10:22:49.687Z,84.42
2022-12-20T10:25:19.438Z,83.97
2022-12-20T10:27:47.465Z,84.50
2022-12-20T10:30:16.191Z,84.16
2022-12-20T10:32:45.941Z,84.93
2022-12-20T10:35:27.043Z,84.65
2022-12-20T10:38:08.859Z,83.34
2022-12-20T10:43:25.851Z,83.81
2022-12-20T10:45:57.960Z,83.77
2022-12-20T10:48:30.290Z,83.64
2022-12-20T10:50:59.534Z,84.12
2022-12-20T10:53:28.200Z,84.09
2022-12-20T10:56:08.977Z,83.64
2022-12-20T10:58:36.870Z,83.97
2022-12-20T11:01:06.551Z,83.79
2022-12-20T11:03:33.160Z,84.21
2022-12-20T11:06:02.263Z,84.64
2022-12-20T11:08:47.376Z,83.84
2022-12-20T11:11:21.009Z,84.06
2022-12-20T11:13:49.071Z,83.98
2022-12-20T11:16:29.567Z,83.68
2022-12-20T11:19:05.581Z,83.68
2022-12-20T11:21:39.134Z,82.90
2022-12-20T11:24:13.181Z,83.26
2022-12-20T11:26:59.291Z,83.26
2022-12-20T11:29:40.997Z,82.90
2022-12-20T11:32:17.209Z,82.42
2022-12-20T11:34:52.797Z,82.65
2022-12-20T11:37:21.728Z,82.95
2022-12-20T11:40:10.802Z,83.17
2022-12-20T11:42:54.872Z,82.47
2022-12-20T11:45:30.128Z,82.98
2022-12-20T11:48:17.546Z,83.16
2022-12-20T11:51:01.683Z,83.57
2022-12-20T11:53:35.152Z,83.79
2022-12-20T11:56:08.860Z,83.79
2022-12-20T11:58:47.232Z,83.55
2022-12-20T12:01:17.578Z,83.57
2022-12-20T12:03:50.290Z,83.35
2022-12-20T12:06:22.069Z,83.39
2022-12-20T12:08:52.857Z,83.87
2022-12-20T12:14:22.909Z,83.82
2022-12-20T12:16:56.619Z,84.21
2022-12-20T12:19:27.808Z,83.86
2022-12-20T12:22:01.265Z,83.37
2022-12-20T12:24:33.187Z,82.17
2022-12-20T12:27:02.101Z,82.75
2022-12-20T12:29:30.592Z,83.15
2022-12-20T12:32:00.607Z,83.71
2022-12-20T12:34:42.412Z,83.43
2022-12-20T12:37:27.420Z,83.57
2022-12-20T12:40:24.100Z,82.62
2022-12-20T12:43:40.729Z,82.42
2022-12-20T12:46:14.429Z,81.98
2022-12-20T12:48:45.969Z,82.69
2022-12-20T12:51:15.413Z,81.49
2022-12-20T12:53:44.700Z,81.20
2022-12-20T12:56:47.387Z,81.76
2022-12-20T12:59:50.641Z,81.26
2022-12-20T13:02:34.878Z,81.64
2022-12-20T13:05:39.063Z,80.71
2022-12-20T13:08:16.953Z,80.87
2022-12-20T13:10:59.443Z,81.34
2022-12-20T13:13:26.374Z,80.51
2022-12-20T13:16:09.221Z,81.12
2022-12-20T13:18:37.251Z,80.92
2022-12-20T13:21:31.988Z,81.37
2022-12-20T13:24:38.278Z,81.39
2022-12-20T13:27:21.957Z,81.11
2022-12-20T13:29:55.717Z,81.23
2022-12-20T13:32:55.114Z,80.93
2022-12-20T13:35:53.619Z,80.42
2022-12-20T13:38:49.545Z,79.98
2022-12-20T13:41:29.614Z,79.92
2022-12-20T13:44:09.334Z,79.98
2022-12-20T13:46:43.580Z,80.27
2022-12-20T13:49:15.280Z,80.07
2022-12-20T13:51:43.210Z,79.77
2022-12-20T13:54:21.781Z,80.32
2022-12-20T13:56:53.345Z,80.15
2022-12-20T13:59:25.649Z,79.87
2022-12-20T14:01:54.704Z,79.68
2022-12-20T14:04:21.705Z,79.54
2022-12-20T14:06:56.486Z,79.61
2022-12-20T14:09:28.594Z,80.22
2022-12-20T14:11:55.170Z,80.40
2022-12-20T14:14:21.772Z,81.06
2022-12-20T14:16:48.366Z,81.50
2022-12-20T14:19:15.490Z,81.71
2022-12-20T14:21:44.291Z,81.18
2022-12-20T14:24:17.717Z,81.13
2022-12-20T14:26:47.014Z,81.19
2022-12-20T14:29:18.553Z,80.71
2022-12-20T14:31:46.706Z,80.18
2022-12-20T14:34:17.489Z,80.34
2022-12-20T14:36:45.705Z,80.00
2022-12-20T14:39:25.850Z,81.12
2022-12-20T14:41:57.644Z,81.13
2022-12-20T14:44:26.112Z,81.53
2022-12-20T14:46:55.399Z,81.74
2022-12-20T14:49:24.938Z,81.51
2022-12-20T14:52:03.928Z,81.66
2022-12-20T14:55:06.439Z,82.35
2022-12-20T14:57:23.554Z,81.68
2022-12-20T15:00:11.998Z,82.49
2022-12-20T15:02:41.391Z,82.21
2022-12-20T15:05:35.389Z,82.34
2022-12-20T15:08:10.428Z,82.93
2022-12-20T15:10:38.604Z,83.30
2022-12-20T15:13:08.313Z,82.88
2022-12-20T15:15:34.991Z,83.38
2022-12-20T15:18:01.568Z,83.54
2022-12-20T15:20:28.313Z,83.43
2022-12-20T15:22:54.856Z,83.51
2022-12-20T15:25:21.409Z,83.90
2022-12-20T15:27:49.435Z,83.81
2022-12-20T15:30:16.910Z,84.56
2022-12-20T15:32:54.635Z,84.70
2022-12-20T15:35:21.904Z,84.65
2022-12-20T15:37:48.484Z,84.79
2022-12-20T15:40:15.411Z,85.09
2022-12-20T15:42:42.611Z,85.12
2022-12-20T15:45:14.448Z,85.09
2022-12-20T15:47:40.998Z,85.44
2022-12-20T15:50:08.329Z,85.62
2022-12-20T15:52:34.988Z,86.02
2022-12-20T15:55:01.715Z,86.65
2022-12-20T15:57:28.275Z,86.71
2022-12-20T16:00:00.600Z,86.09
2022-12-20T16:02:30.506Z,86.64
2022-12-20T16:04:57.330Z,86.57
2022-12-20T16:07:23.936Z,87.09
2022-12-20T16:09:50.937Z,87.48
2022-12-20T16:12:21.110Z,87.24
2022-12-20T16:14:47.745Z,87.20
2022-12-20T16:17:14.871Z,87.34
2022-12-20T16:19:43.234Z,87.23
2022-12-20T16:22:15.738Z,87.28
2022-12-20T16:24:42.708Z,87.40
2022-12-20T16:27:09.238Z,87.62
2022-12-20T16:29:35.855Z,87.64
2022-12-20T16:32:02.542Z,87.86
2022-12-20T16:34:29.137Z,87.39
2022-12-20T16:36:57.071Z,87.39
2022-12-20T16:39:23.777Z,87.22
2022-12-20T16:41:50.330Z,87.38
2022-12-20T16:44:17.120Z,87.39
2022-12-20T16:46:43.857Z,89.53
2022-12-20T16:49:19.419Z,90.28
2022-12-20T16:51:48.348Z,91.13
2022-12-20T16:54:20.036Z,91.65
2022-12-20T16:56:48.059Z,91.33
2022-12-20T16:59:23.257Z,91.77
2022-12-20T17:01:52.111Z,91.73
2022-12-20T17:04:20.268Z,91.86
2022-12-20T17:06:47.594Z,91.22
2022-12-20T17:12:00.413Z,91.33
2022-12-20T17:14:27.006Z,91.17
2022-12-20T17:16:53.649Z,90.77
2022-12-20T17:19:20.270Z,89.43
2022-12-20T17:24:34.009Z,89.70
2022-12-20T17:27:00.580Z,90.25
2022-12-20T17:29:27.208Z,89.42
2022-12-20T17:31:53.920Z,89.60
2022-12-20T17:34:23.714Z,89.66
2022-12-20T17:36:52.030Z,89.28
2022-12-20T17:39:18.838Z,89.05
2022-12-20T17:41:48.037Z,89.13
2022-12-20T17:44:18.017Z,88.87
2022-12-20T17:46:44.555Z,88.63
2022-12-20T17:49:11.245Z,88.55
2022-12-20T17:51:37.778Z,89.17
2022-12-20T17:54:04.766Z,89.36
2022-12-20T17:56:33.404Z,88.65
2022-12-20T17:59:03.161Z,88.67
2022-12-20T18:01:31.815Z,89.42
2022-12-20T18:04:05.027Z,89.17
2022-12-20T18:06:34.676Z,89.48
2022-12-20T18:09:01.203Z,89.79
2022-12-20T18:11:28.990Z,88.85
2022-12-20T18:14:00.786Z,89.44
2022-12-20T18:16:30.365Z,90.50
2022-12-20T18:18:57.476Z,91.14
2022-12-20T18:21:26.411Z,91.08
2022-12-20T18:23:53.761Z,91.03
2022-12-20T18:26:23.336Z,90.47
2022-12-20T18:28:51.603Z,89.30
2022-12-20T18:31:21.753Z,90.18
2022-12-20T18:33:52.526Z,89.88
2022-12-20T18:36:26.196Z,89.85
2022-12-20T18:38:53.046Z,89.16
2022-12-20T18:41:22.430Z,89.43
2022-12-20T18:43:49.171Z,89.82
2022-12-20T18:46:17.463Z,89.45
2022-12-20T18:48:45.672Z,89.60
2022-12-20T18:51:14.761Z,89.35
2022-12-20T18:53:42.794Z,89.48
2022-12-20T18:56:12.144Z,88.77
2022-12-20T18:58:38.893Z,89.32
2022-12-20T19:01:07.042Z,90.68
2022-12-20T19:03:33.725Z,90.73
2022-12-20T19:06:01.685Z,91.35
2022-12-20T19:08:29.116Z,93.53
2022-12-20T19:10:58.821Z,94.68
2022-12-20T19:13:25.708Z,96.36
2022-12-20T19:16:01.036Z,96.63
2022-12-20T19:18:27.703Z,96.32
2022-12-20T19:20:54.292Z,97.18
2022-12-20T19:23:22.202Z,96.75
2022-12-20T19:25:48.802Z,97.33
2022-12-20T19:28:15.375Z,98.28
2022-12-20T19:30:41.996Z,99.16
2022-12-20T19:33:08.618Z,100.00
2022-12-20T19:38:23.022Z,98.01
2022-12-20T19:40:53.293Z,99.03
2022-12-20T19:43:20.147Z,97.98
2022-12-20T19:45:46.740Z,98.43
2022-12-20T19:48:13.325Z,99.11
2022-12-20T19:50:40.077Z,99.51
2022-12-20T19:53:06.689Z,100.00
2022-12-20T19:55:34.778Z,100.00
2022-12-20T19:58:01.382Z,100.00
2022-12-20T20:00:27.963Z,100.00
2022-12-20T20:02:54.686Z,100.00
2022-12-20T20:05:21.377Z,100.00
2022-12-20T20:07:48.139Z,100.00
2022-12-20T20:10:14.828Z,100.00
2022-12-20T20:12:42.843Z,100.00
2022-12-20T20:15:09.701Z,100.00
2022-12-20T20:17:36.337Z,100.00
2022-12-20T20:20:03.441Z,100.00
2022-12-20T20:22:30.496Z,100.00
2022-12-20T20:24:57.168Z,100.00
2022-12-20T20:27:23.750Z,100.00
2022-12-20T20:29:51.844Z,100.00
2022-12-20T20:32:18.411Z,100.00
2022-12-20T20:34:45.138Z,100.00
2022-12-20T20:37:11.714Z,100.00
2022-12-20T20:39:38.287Z,100.00
2022-12-20T20:42:05.061Z,100.00
2022-12-20T20:44:31.651Z,100.00
2022-12-20T20:46:59.602Z,100.00
2022-12-20T20:49:26.174Z,100.00
2022-12-20T20:51:52.745Z,100.00
2022-12-20T20:54:19.281Z,100.00
2022-12-20T20:56:45.883Z,100.00
2022-12-20T20:59:17.591Z,100.00
2022-12-20T21:01:44.825Z,100.00
2022-12-20T21:04:13.047Z,100.00
2022-12-20T21:06:41.452Z,100.00
2022-12-20T21:09:08.682Z,100.00
2022-12-20T21:11:35.383Z,100.00
2022-12-20T21:14:01.956Z,100.00
2022-12-20T21:16:28.754Z,100.00
2022-12-20T21:18:57.006Z,100.00
2022-12-20T21:21:26.349Z,100.00
2022-12-20T21:23:53.596Z,100.00
2022-12-20T21:26:21.720Z,100.00
2022-12-20T21:28:48.585Z,100.00
2022-12-20T21:31:17.238Z,100.00
2022-12-20T21:33:43.987Z,100.00
2022-12-20T21:36:13.033Z,100.00
2022-12-20T21:38:41.677Z,100.00
2022-12-20T21:41:10.881Z,100.00
2022-12-20T21:43:37.979Z,100.00
2022-12-20T21:46:04.688Z,100.00
2022-12-20T21:48:31.385Z,100.00
2022-12-20T21:50:59.044Z,100.00
2022-12-20T21:53:25.586Z,100.00
2022-12-20T21:55:57.715Z,100.00
2022-12-20T21:58:25.076Z,100.00
2022-12-20T22:00:54.987Z,100.00
2022-12-20T22:03:23.256Z,100.00
2022-12-20T22:05:51.640Z,100.00
2022-12-20T22:08:19.526Z,100.00
2022-12-20T22:10:46.467Z,100.00
2022-12-20T22:13:14.323Z,100.00
2022-12-20T22:15:40.857Z,100.00
2022-12-20T22:18:08.221Z,100.00
2022-12-20T22:20:35.266Z,100.00
2022-12-20T22:23:02.181Z,100.00
2022-12-20T22:25:28.800Z,100.00
2022-12-20T22:27:55.493Z,100.00
2022-12-20T22:30:23.465Z,100.00
2022-12-20T22:32:50.100Z,100.00
2022-12-20T22:35:22.442Z,100.00
2022-12-20T22:37:49.381Z,100.00
2022-12-20T22:40:16.004Z,100.00
2022-12-20T22:42:42.557Z,100.00
2022-12-20T22:45:10.149Z,100.00
2022-12-20T22:47:40.106Z,100.00
2022-12-20T22:50:09.025Z,100.00
2022-12-20T22:52:35.836Z,100.00
2022-12-20T22:55:02.605Z,100.00
2022-12-20T22:57:29.205Z,100.00
2022-12-20T22:59:55.769Z,100.00
2022-12-20T23:02:22.552Z,100.00
2022-12-20T23:04:50.841Z,100.00
2022-12-20T23:07:17.346Z,100.00
2022-12-20T23:09:44.043Z,100.00
2022-12-20T23:12:11.023Z,100.00
2022-12-20T23:14:37.766Z,100.00
2022-12-20T23:17:06.135Z,100.00
2022-12-20T23:19:33.054Z,100.00
2022-12-20T23:22:00.994Z,100.00
2022-12-20T23:24:27.613Z,100.00
2022-12-20T23:26:54.187Z,100.00
2022-12-20T23:29:20.728Z,100.00
2022-12-20T23:31:47.333Z,100.00
2022-12-20T23:34:13.952Z,100.00
2022-12-20T23:36:40.473Z,100.00
2022-12-20T23:39:08.419Z,100.00
2022-12-20T23:41:35.019Z,100.00
2022-12-20T23:44:04.095Z,100.00
2022-12-20T23:46:30.825Z,100.00
2022-12-20T23:48:57.418Z,100.00
2022-12-20T23:51:24.083Z,100.00
2022-12-20T23:53:51.366Z,100.00
2022-12-20T23:56:20.792Z,100.00
2022-12-20T23:58:51.444Z,100.00
